sensor_id;sensor_type;location;lat;lon;timestamp;temperature;humidity
21770;DHT22;11046;49.558;8.674;2022-12-29T00:00:14;10.30;92.90
21770;DHT22;11046;49.558;8.674;2022-12-29T00:03:15;10.30;92.90
21770;DHT22;11046;49.558;8.674;2022-12-29T00:06:15;10.30;92.90
21770;DHT22;11046;49.558;8.674;2022-12-29T00:09:17;10.30;93.00
21770;DHT22;11046;49.558;8.674;2022-12-29T00:12:21;10.30;93.10
21770;DHT22;11046;49.558;8.674;2022-12-29T00:15:25;10.40;93.10
21770;DHT22;11046;49.558;8.674;2022-12-29T00:18:37;10.40;93.20
21770;DHT22;11046;49.558;8.674;2022-12-29T00:21:38;10.40;93.20
21770;DHT22;11046;49.558;8.674;2022-12-29T00:24:58;10.40;93.30
21770;DHT22;11046;49.558;8.674;2022-12-29T00:28:02;10.40;93.30
21770;DHT22;11046;49.558;8.674;2022-12-29T00:31:24;10.30;93.40
21770;DHT22;11046;49.558;8.674;2022-12-29T00:34:43;10.40;93.70
21770;DHT22;11046;49.558;8.674;2022-12-29T00:38:05;10.30;94.30
21770;DHT22;11046;49.558;8.674;2022-12-29T00:41:26;10.30;94.00
21770;DHT22;11046;49.558;8.674;2022-12-29T00:44:45;10.40;94.10
21770;DHT22;11046;49.558;8.674;2022-12-29T00:47:50;10.40;94.10
21770;DHT22;11046;49.558;8.674;2022-12-29T00:50:55;10.40;94.20
21770;DHT22;11046;49.558;8.674;2022-12-29T00:54:02;10.40;94.50
21770;DHT22;11046;49.558;8.674;2022-12-29T00:57:04;10.50;94.60
21770;DHT22;11046;49.558;8.674;2022-12-29T01:00:12;10.40;94.50
21770;DHT22;11046;49.558;8.674;2022-12-29T01:03:13;10.50;94.50
21770;DHT22;11046;49.558;8.674;2022-12-29T01:06:14;10.50;94.40
21770;DHT22;11046;49.558;8.674;2022-12-29T01:09:16;10.50;94.40
21770;DHT22;11046;49.558;8.674;2022-12-29T01:12:35;10.50;94.30
21770;DHT22;11046;49.558;8.674;2022-12-29T01:15:50;10.40;94.60
21770;DHT22;11046;49.558;8.674;2022-12-29T01:18:51;10.40;94.30
21770;DHT22;11046;49.558;8.674;2022-12-29T01:21:51;10.40;94.20
21770;DHT22;11046;49.558;8.674;2022-12-29T01:24:53;10.40;94.10
21770;DHT22;11046;49.558;8.674;2022-12-29T01:27:59;10.30;94.10
21770;DHT22;11046;49.558;8.674;2022-12-29T01:31:01;10.30;94.10
21770;DHT22;11046;49.558;8.674;2022-12-29T01:34:02;10.30;94.10
21770;DHT22;11046;49.558;8.674;2022-12-29T01:37:05;10.40;94.10
21770;DHT22;11046;49.558;8.674;2022-12-29T01:40:07;10.40;94.10
21770;DHT22;11046;49.558;8.674;2022-12-29T01:43:12;10.40;94.20
21770;DHT22;11046;49.558;8.674;2022-12-29T01:46:30;10.40;94.30
21770;DHT22;11046;49.558;8.674;2022-12-29T01:49:32;10.40;94.30
21770;DHT22;11046;49.558;8.674;2022-12-29T01:52:38;10.50;94.40
21770;DHT22;11046;49.558;8.674;2022-12-29T01:55:46;10.50;94.50
21770;DHT22;11046;49.558;8.674;2022-12-29T01:58:54;10.50;94.60
21770;DHT22;11046;49.558;8.674;2022-12-29T02:01:58;10.50;94.70
21770;DHT22;11046;49.558;8.674;2022-12-29T02:05:11;10.40;95.00
21770;DHT22;11046;49.558;8.674;2022-12-29T02:08:18;10.30;95.40
21770;DHT22;11046;49.558;8.674;2022-12-29T02:11:19;10.20;95.60
21770;DHT22;11046;49.558;8.674;2022-12-29T02:14:21;10.10;95.80
21770;DHT22;11046;49.558;8.674;2022-12-29T02:31:52;10.20;97.00
21770;DHT22;11046;49.558;8.674;2022-12-29T02:38:59;10.20;97.20
21770;DHT22;11046;49.558;8.674;2022-12-29T02:42:13;10.20;97.30
21770;DHT22;11046;49.558;8.674;2022-12-29T02:48:52;10.10;97.80
21770;DHT22;11046;49.558;8.674;2022-12-29T02:51:59;10.10;98.20
21770;DHT22;11046;49.558;8.674;2022-12-29T02:55:01;10.20;98.10
21770;DHT22;11046;49.558;8.674;2022-12-29T02:58:21;10.20;98.10
21770;DHT22;11046;49.558;8.674;2022-12-29T03:01:50;10.20;98.50
21770;DHT22;11046;49.558;8.674;2022-12-29T03:05:22;10.20;98.40
21770;DHT22;11046;49.558;8.674;2022-12-29T03:15:28;10.30;98.60
21770;DHT22;11046;49.558;8.674;2022-12-29T03:18:55;10.20;98.50
21770;DHT22;11046;49.558;8.674;2022-12-29T03:22:09;10.20;98.40
21770;DHT22;11046;49.558;8.674;2022-12-29T03:25:42;10.20;98.50
21770;DHT22;11046;49.558;8.674;2022-12-29T03:28:54;10.30;98.50
21770;DHT22;11046;49.558;8.674;2022-12-29T03:32:05;10.30;98.50
21770;DHT22;11046;49.558;8.674;2022-12-29T03:35:12;10.30;98.50
21770;DHT22;11046;49.558;8.674;2022-12-29T03:38:39;10.30;98.60
21770;DHT22;11046;49.558;8.674;2022-12-29T03:41:45;10.30;98.60
21770;DHT22;11046;49.558;8.674;2022-12-29T03:44:47;10.30;98.60
21770;DHT22;11046;49.558;8.674;2022-12-29T03:47:51;10.30;98.50
21770;DHT22;11046;49.558;8.674;2022-12-29T03:50:52;10.40;98.50
21770;DHT22;11046;49.558;8.674;2022-12-29T03:53:53;10.50;98.40
21770;DHT22;11046;49.558;8.674;2022-12-29T03:56:54;10.40;98.40
21770;DHT22;11046;49.558;8.674;2022-12-29T04:00:10;10.50;98.40
21770;DHT22;11046;49.558;8.674;2022-12-29T04:03:19;10.40;98.30
21770;DHT22;11046;49.558;8.674;2022-12-29T04:06:20;10.40;98.30
21770;DHT22;11046;49.558;8.674;2022-12-29T04:09:29;10.50;98.20
21770;DHT22;11046;49.558;8.674;2022-12-29T04:12:38;10.50;98.10
21770;DHT22;11046;49.558;8.674;2022-12-29T04:15:39;10.50;98.00
21770;DHT22;11046;49.558;8.674;2022-12-29T04:18:44;10.60;97.90
21770;DHT22;11046;49.558;8.674;2022-12-29T04:21:46;10.60;97.80
21770;DHT22;11046;49.558;8.674;2022-12-29T04:24:47;10.70;97.70
21770;DHT22;11046;49.558;8.674;2022-12-29T04:27:47;10.70;97.60
21770;DHT22;11046;49.558;8.674;2022-12-29T04:31:04;10.70;97.50
21770;DHT22;11046;49.558;8.674;2022-12-29T04:34:10;10.70;97.50
21770;DHT22;11046;49.558;8.674;2022-12-29T04:37:12;10.70;97.50
21770;DHT22;11046;49.558;8.674;2022-12-29T04:40:13;10.70;97.50
21770;DHT22;11046;49.558;8.674;2022-12-29T04:43:15;10.70;97.50
21770;DHT22;11046;49.558;8.674;2022-12-29T04:46:34;10.70;97.40
21770;DHT22;11046;49.558;8.674;2022-12-29T04:49:50;10.70;97.40
21770;DHT22;11046;49.558;8.674;2022-12-29T04:53:12;10.70;97.30
21770;DHT22;11046;49.558;8.674;2022-12-29T04:56:13;10.70;97.20
21770;DHT22;11046;49.558;8.674;2022-12-29T04:59:14;10.80;97.10
21770;DHT22;11046;49.558;8.674;2022-12-29T05:02:19;10.90;97.00
21770;DHT22;11046;49.558;8.674;2022-12-29T05:05:23;10.90;96.90
21770;DHT22;11046;49.558;8.674;2022-12-29T05:08:25;10.80;96.80
21770;DHT22;11046;49.558;8.674;2022-12-29T05:11:26;10.80;96.80
21770;DHT22;11046;49.558;8.674;2022-12-29T05:14:28;10.90;96.80
21770;DHT22;11046;49.558;8.674;2022-12-29T05:17:32;10.90;96.80
21770;DHT22;11046;49.558;8.674;2022-12-29T05:20:35;10.80;96.70
21770;DHT22;11046;49.558;8.674;2022-12-29T05:23:37;10.90;96.60
21770;DHT22;11046;49.558;8.674;2022-12-29T05:26:43;10.90;96.60
21770;DHT22;11046;49.558;8.674;2022-12-29T05:30:04;10.90;96.60
21770;DHT22;11046;49.558;8.674;2022-12-29T05:33:05;10.80;96.90
21770;DHT22;11046;49.558;8.674;2022-12-29T05:36:09;10.90;96.50
21770;DHT22;11046;49.558;8.674;2022-12-29T05:39:13;10.90;96.50
21770;DHT22;11046;49.558;8.674;2022-12-29T05:42:13;10.90;96.50
21770;DHT22;11046;49.558;8.674;2022-12-29T05:45:24;10.90;96.50
21770;DHT22;11046;49.558;8.674;2022-12-29T05:48:48;10.80;96.40
21770;DHT22;11046;49.558;8.674;2022-12-29T05:52:18;10.80;96.40
21770;DHT22;11046;49.558;8.674;2022-12-29T05:55:19;10.80;96.40
21770;DHT22;11046;49.558;8.674;2022-12-29T05:58:23;10.80;96.40
21770;DHT22;11046;49.558;8.674;2022-12-29T06:01:25;10.90;96.40
21770;DHT22;11046;49.558;8.674;2022-12-29T06:04:27;10.80;96.40
21770;DHT22;11046;49.558;8.674;2022-12-29T06:07:29;10.80;96.40
21770;DHT22;11046;49.558;8.674;2022-12-29T06:10:32;10.80;96.40
21770;DHT22;11046;49.558;8.674;2022-12-29T06:13:38;10.90;96.40
21770;DHT22;11046;49.558;8.674;2022-12-29T06:16:41;10.90;96.40
21770;DHT22;11046;49.558;8.674;2022-12-29T06:19:45;10.90;96.30
21770;DHT22;11046;49.558;8.674;2022-12-29T06:22:46;10.90;96.40
21770;DHT22;11046;49.558;8.674;2022-12-29T06:25:50;10.90;96.40
21770;DHT22;11046;49.558;8.674;2022-12-29T06:28:51;10.90;96.40
21770;DHT22;11046;49.558;8.674;2022-12-29T06:31:51;10.80;96.40
21770;DHT22;11046;49.558;8.674;2022-12-29T06:34:56;10.90;96.40
21770;DHT22;11046;49.558;8.674;2022-12-29T06:37:58;10.90;96.30
21770;DHT22;11046;49.558;8.674;2022-12-29T06:41:01;10.80;96.20
21770;DHT22;11046;49.558;8.674;2022-12-29T06:44:25;10.90;96.20
21770;DHT22;11046;49.558;8.674;2022-12-29T06:47:31;10.90;96.20
21770;DHT22;11046;49.558;8.674;2022-12-29T06:50:32;10.90;96.20
21770;DHT22;11046;49.558;8.674;2022-12-29T06:53:33;10.90;96.00
21770;DHT22;11046;49.558;8.674;2022-12-29T06:56:34;10.90;96.00
21770;DHT22;11046;49.558;8.674;2022-12-29T06:59:34;10.90;95.90
21770;DHT22;11046;49.558;8.674;2022-12-29T07:02:35;10.90;95.90
21770;DHT22;11046;49.558;8.674;2022-12-29T07:05:38;10.90;95.80
21770;DHT22;11046;49.558;8.674;2022-12-29T07:08:39;10.90;96.10
21770;DHT22;11046;49.558;8.674;2022-12-29T07:12:01;11.00;95.70
21770;DHT22;11046;49.558;8.674;2022-12-29T07:15:04;11.00;95.60
21770;DHT22;11046;49.558;8.674;2022-12-29T07:18:05;11.00;95.60
21770;DHT22;11046;49.558;8.674;2022-12-29T07:21:11;10.90;95.50
21770;DHT22;11046;49.558;8.674;2022-12-29T07:24:14;11.00;95.50
21770;DHT22;11046;49.558;8.674;2022-12-29T07:27:18;11.00;95.40
21770;DHT22;11046;49.558;8.674;2022-12-29T07:30:24;11.00;95.30
21770;DHT22;11046;49.558;8.674;2022-12-29T07:33:28;11.00;95.20
21770;DHT22;11046;49.558;8.674;2022-12-29T07:36:29;11.00;95.10
21770;DHT22;11046;49.558;8.674;2022-12-29T07:39:30;11.00;95.10
21770;DHT22;11046;49.558;8.674;2022-12-29T07:42:31;11.10;95.10
21770;DHT22;11046;49.558;8.674;2022-12-29T07:45:35;11.00;95.10
21770;DHT22;11046;49.558;8.674;2022-12-29T07:48:47;11.10;95.10
21770;DHT22;11046;49.558;8.674;2022-12-29T07:51:48;11.10;94.90
21770;DHT22;11046;49.558;8.674;2022-12-29T07:54:49;11.10;94.80
21770;DHT22;11046;49.558;8.674;2022-12-29T07:57:49;11.10;94.70
21770;DHT22;11046;49.558;8.674;2022-12-29T08:00:54;11.20;94.70
21770;DHT22;11046;49.558;8.674;2022-12-29T08:03:58;11.20;94.70
21770;DHT22;11046;49.558;8.674;2022-12-29T08:06:58;11.20;94.60
21770;DHT22;11046;49.558;8.674;2022-12-29T08:10:03;11.20;94.60
21770;DHT22;11046;49.558;8.674;2022-12-29T08:13:04;11.20;94.60
21770;DHT22;11046;49.558;8.674;2022-12-29T08:16:04;11.20;94.60
21770;DHT22;11046;49.558;8.674;2022-12-29T08:19:11;11.30;94.60
21770;DHT22;11046;49.558;8.674;2022-12-29T08:22:13;11.20;94.50
21770;DHT22;11046;49.558;8.674;2022-12-29T08:25:14;11.30;94.60
21770;DHT22;11046;49.558;8.674;2022-12-29T08:28:15;11.30;94.60
21770;DHT22;11046;49.558;8.674;2022-12-29T08:31:16;11.30;94.60
21770;DHT22;11046;49.558;8.674;2022-12-29T08:34:19;11.30;94.40
21770;DHT22;11046;49.558;8.674;2022-12-29T08:37:22;11.30;94.40
21770;DHT22;11046;49.558;8.674;2022-12-29T08:40:28;11.40;94.40
21770;DHT22;11046;49.558;8.674;2022-12-29T08:43:34;11.40;94.40
21770;DHT22;11046;49.558;8.674;2022-12-29T08:46:40;11.40;94.40
21770;DHT22;11046;49.558;8.674;2022-12-29T08:49:41;11.50;94.40
21770;DHT22;11046;49.558;8.674;2022-12-29T08:52:41;11.50;94.40
21770;DHT22;11046;49.558;8.674;2022-12-29T08:55:42;11.50;94.40
21770;DHT22;11046;49.558;8.674;2022-12-29T08:58:45;11.50;94.30
21770;DHT22;11046;49.558;8.674;2022-12-29T09:01:45;11.50;94.30
21770;DHT22;11046;49.558;8.674;2022-12-29T09:04:49;11.60;94.30
21770;DHT22;11046;49.558;8.674;2022-12-29T09:07:52;11.60;94.30
21770;DHT22;11046;49.558;8.674;2022-12-29T09:11:06;11.60;94.20
21770;DHT22;11046;49.558;8.674;2022-12-29T09:14:08;11.70;94.10
21770;DHT22;11046;49.558;8.674;2022-12-29T09:17:10;11.70;94.10
21770;DHT22;11046;49.558;8.674;2022-12-29T09:20:30;11.70;94.10
21770;DHT22;11046;49.558;8.674;2022-12-29T09:23:33;11.60;94.20
21770;DHT22;11046;49.558;8.674;2022-12-29T09:26:40;11.60;94.20
21770;DHT22;11046;49.558;8.674;2022-12-29T09:29:41;11.50;94.20
21770;DHT22;11046;49.558;8.674;2022-12-29T09:32:45;11.50;94.20
21770;DHT22;11046;49.558;8.674;2022-12-29T09:35:55;11.50;94.20
21770;DHT22;11046;49.558;8.674;2022-12-29T09:38:59;11.60;94.20
21770;DHT22;11046;49.558;8.674;2022-12-29T09:42:22;11.60;94.20
21770;DHT22;11046;49.558;8.674;2022-12-29T09:45:32;11.60;94.20
21770;DHT22;11046;49.558;8.674;2022-12-29T09:48:41;11.50;94.20
21770;DHT22;11046;49.558;8.674;2022-12-29T09:51:50;11.50;94.30
21770;DHT22;11046;49.558;8.674;2022-12-29T09:54:58;11.50;94.50
21770;DHT22;11046;49.558;8.674;2022-12-29T09:58:41;11.50;94.70
21770;DHT22;11046;49.558;8.674;2022-12-29T10:02:41;11.50;94.70
21770;DHT22;11046;49.558;8.674;2022-12-29T10:05:50;11.60;94.80
21770;DHT22;11046;49.558;8.674;2022-12-29T10:16:45;11.80;94.80
21770;DHT22;11046;49.558;8.674;2022-12-29T10:23:29;11.80;94.90
21770;DHT22;11046;49.558;8.674;2022-12-29T10:26:43;11.80;95.00
21770;DHT22;11046;49.558;8.674;2022-12-29T10:29:55;11.80;94.90
21770;DHT22;11046;49.558;8.674;2022-12-29T10:33:04;11.90;94.90
21770;DHT22;11046;49.558;8.674;2022-12-29T10:36:33;11.90;95.00
21770;DHT22;11046;49.558;8.674;2022-12-29T10:39:57;12.00;95.00
21770;DHT22;11046;49.558;8.674;2022-12-29T10:43:00;12.10;95.00
21770;DHT22;11046;49.558;8.674;2022-12-29T10:46:11;12.10;94.90
21770;DHT22;11046;49.558;8.674;2022-12-29T10:49:17;12.10;94.90
21770;DHT22;11046;49.558;8.674;2022-12-29T10:52:23;12.20;94.90
21770;DHT22;11046;49.558;8.674;2022-12-29T10:55:32;12.20;94.80
21770;DHT22;11046;49.558;8.674;2022-12-29T10:58:37;12.20;94.80
21770;DHT22;11046;49.558;8.674;2022-12-29T11:02:12;12.30;94.80
21770;DHT22;11046;49.558;8.674;2022-12-29T11:05:35;12.30;94.70
21770;DHT22;11046;49.558;8.674;2022-12-29T11:08:51;12.40;94.60
21770;DHT22;11046;49.558;8.674;2022-12-29T11:12:21;12.30;94.70
21770;DHT22;11046;49.558;8.674;2022-12-29T11:15:23;12.40;94.60
21770;DHT22;11046;49.558;8.674;2022-12-29T11:18:36;12.30;94.60
21770;DHT22;11046;49.558;8.674;2022-12-29T11:21:39;12.30;94.80
21770;DHT22;11046;49.558;8.674;2022-12-29T11:24:53;12.20;94.90
21770;DHT22;11046;49.558;8.674;2022-12-29T11:28:13;12.20;95.10
21770;DHT22;11046;49.558;8.674;2022-12-29T11:31:17;12.00;95.20
21770;DHT22;11046;49.558;8.674;2022-12-29T11:34:32;12.00;95.40
21770;DHT22;11046;49.558;8.674;2022-12-29T11:37:42;12.00;95.40
21770;DHT22;11046;49.558;8.674;2022-12-29T11:40:46;12.00;95.40
21770;DHT22;11046;49.558;8.674;2022-12-29T11:43:48;12.00;95.50
21770;DHT22;11046;49.558;8.674;2022-12-29T11:46:51;12.00;95.50
21770;DHT22;11046;49.558;8.674;2022-12-29T11:49:56;12.10;95.50
21770;DHT22;11046;49.558;8.674;2022-12-29T11:53:06;12.20;95.40
21770;DHT22;11046;49.558;8.674;2022-12-29T11:56:11;12.20;95.20
21770;DHT22;11046;49.558;8.674;2022-12-29T12:06:23;12.20;94.90
21770;DHT22;11046;49.558;8.674;2022-12-29T12:09:32;12.20;94.80
21770;DHT22;11046;49.558;8.674;2022-12-29T12:12:56;12.10;94.70
21770;DHT22;11046;49.558;8.674;2022-12-29T12:16:21;12.10;94.60
21770;DHT22;11046;49.558;8.674;2022-12-29T12:19:58;12.10;94.70
21770;DHT22;11046;49.558;8.674;2022-12-29T12:23:14;12.10;94.70
21770;DHT22;11046;49.558;8.674;2022-12-29T12:26:21;12.10;94.70
21770;DHT22;11046;49.558;8.674;2022-12-29T12:29:39;12.20;94.70
21770;DHT22;11046;49.558;8.674;2022-12-29T12:32:52;12.20;94.70
21770;DHT22;11046;49.558;8.674;2022-12-29T12:39:25;12.20;94.40
21770;DHT22;11046;49.558;8.674;2022-12-29T12:42:51;12.30;94.30
21770;DHT22;11046;49.558;8.674;2022-12-29T12:46:28;12.30;94.10
21770;DHT22;11046;49.558;8.674;2022-12-29T12:50:02;12.40;93.80
21770;DHT22;11046;49.558;8.674;2022-12-29T12:53:26;12.40;93.40
21770;DHT22;11046;49.558;8.674;2022-12-29T12:56:41;12.30;93.40
21770;DHT22;11046;49.558;8.674;2022-12-29T13:00:08;12.30;93.40
21770;DHT22;11046;49.558;8.674;2022-12-29T13:04:00;12.30;93.40
21770;DHT22;11046;49.558;8.674;2022-12-29T13:07:23;12.20;93.40
21770;DHT22;11046;49.558;8.674;2022-12-29T13:10:50;12.10;93.60
21770;DHT22;11046;49.558;8.674;2022-12-29T13:13:59;12.10;93.90
21770;DHT22;11046;49.558;8.674;2022-12-29T13:20:26;12.10;94.10
21770;DHT22;11046;49.558;8.674;2022-12-29T13:30:01;12.30;94.00
21770;DHT22;11046;49.558;8.674;2022-12-29T13:33:19;12.20;94.00
21770;DHT22;11046;49.558;8.674;2022-12-29T13:36:29;12.10;94.00
21770;DHT22;11046;49.558;8.674;2022-12-29T13:39:42;12.10;94.00
21770;DHT22;11046;49.558;8.674;2022-12-29T13:42:45;12.10;93.70
21770;DHT22;11046;49.558;8.674;2022-12-29T13:45:54;11.90;93.70
21770;DHT22;11046;49.558;8.674;2022-12-29T13:49:05;11.90;93.70
21770;DHT22;11046;49.558;8.674;2022-12-29T13:52:18;11.80;93.60
21770;DHT22;11046;49.558;8.674;2022-12-29T13:55:35;11.80;93.60
21770;DHT22;11046;49.558;8.674;2022-12-29T14:01:59;11.60;93.70
21770;DHT22;11046;49.558;8.674;2022-12-29T14:08:22;11.60;94.00
21770;DHT22;11046;49.558;8.674;2022-12-29T14:11:38;11.50;94.10
21770;DHT22;11046;49.558;8.674;2022-12-29T14:14:39;11.30;94.30
21770;DHT22;11046;49.558;8.674;2022-12-29T14:17:40;11.30;94.40
21770;DHT22;11046;49.558;8.674;2022-12-29T14:21:08;11.20;94.50
21770;DHT22;11046;49.558;8.674;2022-12-29T14:27:44;11.00;94.70
21770;DHT22;11046;49.558;8.674;2022-12-29T14:30:53;10.90;94.90
21770;DHT22;11046;49.558;8.674;2022-12-29T14:37:26;10.70;95.40
21770;DHT22;11046;49.558;8.674;2022-12-29T14:40:32;10.60;95.60
21770;DHT22;11046;49.558;8.674;2022-12-29T14:43:35;10.60;95.60
21770;DHT22;11046;49.558;8.674;2022-12-29T14:46:45;10.50;95.60
21770;DHT22;11046;49.558;8.674;2022-12-29T14:49:49;10.50;95.70
21770;DHT22;11046;49.558;8.674;2022-12-29T14:52:54;10.40;95.70
21770;DHT22;11046;49.558;8.674;2022-12-29T14:55:55;10.40;95.80
21770;DHT22;11046;49.558;8.674;2022-12-29T14:59:03;10.40;95.90
21770;DHT22;11046;49.558;8.674;2022-12-29T15:02:16;10.30;96.00
21770;DHT22;11046;49.558;8.674;2022-12-29T15:09:10;10.30;96.30
21770;DHT22;11046;49.558;8.674;2022-12-29T15:12:32;10.20;96.30
21770;DHT22;11046;49.558;8.674;2022-12-29T15:15:38;10.20;96.40
21770;DHT22;11046;49.558;8.674;2022-12-29T15:18:38;10.10;96.40
21770;DHT22;11046;49.558;8.674;2022-12-29T15:21:42;10.10;96.40
21770;DHT22;11046;49.558;8.674;2022-12-29T15:24:43;10.10;96.50
21770;DHT22;11046;49.558;8.674;2022-12-29T15:28:02;10.20;96.40
21770;DHT22;11046;49.558;8.674;2022-12-29T15:31:08;10.20;96.60
21770;DHT22;11046;49.558;8.674;2022-12-29T15:34:12;10.10;96.60
21770;DHT22;11046;49.558;8.674;2022-12-29T15:37:21;10.00;96.70
21770;DHT22;11046;49.558;8.674;2022-12-29T15:40:28;10.10;97.00
21770;DHT22;11046;49.558;8.674;2022-12-29T15:46:53;9.90;96.90
21770;DHT22;11046;49.558;8.674;2022-12-29T15:53:21;9.60;97.10
21770;DHT22;11046;49.558;8.674;2022-12-29T15:56:29;9.50;97.20
21770;DHT22;11046;49.558;8.674;2022-12-29T15:59:33;9.50;97.40
21770;DHT22;11046;49.558;8.674;2022-12-29T16:02:34;9.30;97.50
21770;DHT22;11046;49.558;8.674;2022-12-29T16:05:39;9.20;97.60
21770;DHT22;11046;49.558;8.674;2022-12-29T16:09:06;9.20;97.80
21770;DHT22;11046;49.558;8.674;2022-12-29T16:12:20;9.10;98.00
21770;DHT22;11046;49.558;8.674;2022-12-29T16:15:21;9.20;98.00
21770;DHT22;11046;49.558;8.674;2022-12-29T16:18:29;9.20;98.00
21770;DHT22;11046;49.558;8.674;2022-12-29T16:21:34;9.20;98.70
21770;DHT22;11046;49.558;8.674;2022-12-29T16:24:37;9.10;98.40
21770;DHT22;11046;49.558;8.674;2022-12-29T16:27:42;9.20;98.40
21770;DHT22;11046;49.558;8.674;2022-12-29T16:31:05;9.10;98.60
21770;DHT22;11046;49.558;8.674;2022-12-29T16:37:31;9.20;98.80
21770;DHT22;11046;49.558;8.674;2022-12-29T16:40:32;9.20;98.60
21770;DHT22;11046;49.558;8.674;2022-12-29T16:43:35;9.20;98.60
21770;DHT22;11046;49.558;8.674;2022-12-29T16:50:11;9.20;99.10
21770;DHT22;11046;49.558;8.674;2022-12-29T16:53:29;9.20;99.00
21770;DHT22;11046;49.558;8.674;2022-12-29T16:56:34;9.30;99.20
21770;DHT22;11046;49.558;8.674;2022-12-29T16:59:40;9.30;98.90
21770;DHT22;11046;49.558;8.674;2022-12-29T17:02:46;9.40;98.90
21770;DHT22;11046;49.558;8.674;2022-12-29T17:05:48;9.40;98.90
21770;DHT22;11046;49.558;8.674;2022-12-29T17:08:51;9.40;98.90
21770;DHT22;11046;49.558;8.674;2022-12-29T17:11:55;9.40;98.80
21770;DHT22;11046;49.558;8.674;2022-12-29T17:15:27;9.40;98.90
21770;DHT22;11046;49.558;8.674;2022-12-29T17:18:33;9.40;99.00
21770;DHT22;11046;49.558;8.674;2022-12-29T17:21:34;9.30;98.90
21770;DHT22;11046;49.558;8.674;2022-12-29T17:24:37;9.40;99.00
21770;DHT22;11046;49.558;8.674;2022-12-29T17:27:43;9.40;98.90
21770;DHT22;11046;49.558;8.674;2022-12-29T17:30:47;9.40;99.00
21770;DHT22;11046;49.558;8.674;2022-12-29T17:33:49;9.40;98.90
21770;DHT22;11046;49.558;8.674;2022-12-29T17:36:52;9.40;99.00
21770;DHT22;11046;49.558;8.674;2022-12-29T17:39:54;9.40;99.00
21770;DHT22;11046;49.558;8.674;2022-12-29T17:42:56;9.40;99.00
21770;DHT22;11046;49.558;8.674;2022-12-29T17:45:58;9.50;99.10
21770;DHT22;11046;49.558;8.674;2022-12-29T17:48:59;9.50;99.10
21770;DHT22;11046;49.558;8.674;2022-12-29T17:52:00;9.40;99.20
21770;DHT22;11046;49.558;8.674;2022-12-29T17:55:01;9.40;99.30
21770;DHT22;11046;49.558;8.674;2022-12-29T17:58:23;9.40;99.40
21770;DHT22;11046;49.558;8.674;2022-12-29T18:01:28;9.40;99.70
21770;DHT22;11046;49.558;8.674;2022-12-29T18:04:29;9.40;99.70
21770;DHT22;11046;49.558;8.674;2022-12-29T18:07:30;9.40;99.70
21770;DHT22;11046;49.558;8.674;2022-12-29T18:10:33;9.40;99.80
21770;DHT22;11046;49.558;8.674;2022-12-29T18:13:42;9.40;99.90
21770;DHT22;11046;49.558;8.674;2022-12-29T18:16:43;9.30;99.90
21770;DHT22;11046;49.558;8.674;2022-12-29T18:19:44;9.40;99.90
21770;DHT22;11046;49.558;8.674;2022-12-29T18:22:45;9.40;99.90
21770;DHT22;11046;49.558;8.674;2022-12-29T18:25:57;9.40;99.90
21770;DHT22;11046;49.558;8.674;2022-12-29T18:28:59;9.40;99.90
21770;DHT22;11046;49.558;8.674;2022-12-29T18:32:02;9.40;99.90
21770;DHT22;11046;49.558;8.674;2022-12-29T18:35:25;9.40;99.90
21770;DHT22;11046;49.558;8.674;2022-12-29T18:38:33;9.40;99.90
21770;DHT22;11046;49.558;8.674;2022-12-29T18:41:48;9.40;99.90
21770;DHT22;11046;49.558;8.674;2022-12-29T18:44:52;9.30;99.90
21770;DHT22;11046;49.558;8.674;2022-12-29T18:47:56;9.30;99.90
21770;DHT22;11046;49.558;8.674;2022-12-29T18:50:58;9.20;99.90
21770;DHT22;11046;49.558;8.674;2022-12-29T18:54:03;9.20;99.90
21770;DHT22;11046;49.558;8.674;2022-12-29T18:57:05;9.20;99.90
21770;DHT22;11046;49.558;8.674;2022-12-29T19:00:13;9.10;99.90
21770;DHT22;11046;49.558;8.674;2022-12-29T19:03:16;9.10;99.90
21770;DHT22;11046;49.558;8.674;2022-12-29T19:06:19;9.10;99.90
21770;DHT22;11046;49.558;8.674;2022-12-29T19:09:21;9.10;99.80
21770;DHT22;11046;49.558;8.674;2022-12-29T19:12:29;9.00;99.80
21770;DHT22;11046;49.558;8.674;2022-12-29T19:15:34;9.00;99.90
21770;DHT22;11046;49.558;8.674;2022-12-29T19:18:37;9.00;99.90
21770;DHT22;11046;49.558;8.674;2022-12-29T19:21:43;9.00;99.80
21770;DHT22;11046;49.558;8.674;2022-12-29T19:24:48;8.90;99.90
21770;DHT22;11046;49.558;8.674;2022-12-29T19:27:50;8.90;99.90
21770;DHT22;11046;49.558;8.674;2022-12-29T19:30:53;9.00;99.90
21770;DHT22;11046;49.558;8.674;2022-12-29T19:33:57;9.00;99.90
21770;DHT22;11046;49.558;8.674;2022-12-29T19:37:00;9.00;99.90
21770;DHT22;11046;49.558;8.674;2022-12-29T19:40:04;9.00;99.90
21770;DHT22;11046;49.558;8.674;2022-12-29T19:43:11;9.00;99.90
21770;DHT22;11046;49.558;8.674;2022-12-29T19:46:16;9.00;99.90
21770;DHT22;11046;49.558;8.674;2022-12-29T19:49:18;9.00;99.90
21770;DHT22;11046;49.558;8.674;2022-12-29T19:52:24;9.00;99.90
21770;DHT22;11046;49.558;8.674;2022-12-29T19:55:26;9.00;99.90
21770;DHT22;11046;49.558;8.674;2022-12-29T19:58:36;9.00;99.90
21770;DHT22;11046;49.558;8.674;2022-12-29T20:01:39;9.00;99.90
21770;DHT22;11046;49.558;8.674;2022-12-29T20:04:41;9.00;99.90
21770;DHT22;11046;49.558;8.674;2022-12-29T20:07:42;9.00;99.90
21770;DHT22;11046;49.558;8.674;2022-12-29T20:10:59;9.00;99.90
21770;DHT22;11046;49.558;8.674;2022-12-29T20:14:01;9.00;99.90
21770;DHT22;11046;49.558;8.674;2022-12-29T20:17:08;9.10;99.90
21770;DHT22;11046;49.558;8.674;2022-12-29T20:20:10;9.00;99.90
21770;DHT22;11046;49.558;8.674;2022-12-29T20:23:19;9.00;99.90
21770;DHT22;11046;49.558;8.674;2022-12-29T20:26:26;9.00;99.90
21770;DHT22;11046;49.558;8.674;2022-12-29T20:29:33;9.00;99.90
21770;DHT22;11046;49.558;8.674;2022-12-29T20:32:39;8.90;99.90
21770;DHT22;11046;49.558;8.674;2022-12-29T20:35:41;8.90;99.90
21770;DHT22;11046;49.558;8.674;2022-12-29T20:38:46;8.90;99.90
21770;DHT22;11046;49.558;8.674;2022-12-29T20:41:49;8.90;99.90
21770;DHT22;11046;49.558;8.674;2022-12-29T20:44:51;8.80;99.90
21770;DHT22;11046;49.558;8.674;2022-12-29T20:47:56;8.90;99.90
21770;DHT22;11046;49.558;8.674;2022-12-29T20:51:00;8.80;99.90
21770;DHT22;11046;49.558;8.674;2022-12-29T20:54:02;8.90;99.90
21770;DHT22;11046;49.558;8.674;2022-12-29T20:57:07;8.80;99.90
21770;DHT22;11046;49.558;8.674;2022-12-29T21:00:16;8.80;99.90
21770;DHT22;11046;49.558;8.674;2022-12-29T21:03:25;8.90;99.90
21770;DHT22;11046;49.558;8.674;2022-12-29T21:06:27;8.90;99.90
21770;DHT22;11046;49.558;8.674;2022-12-29T21:09:28;8.90;99.90
21770;DHT22;11046;49.558;8.674;2022-12-29T21:12:30;8.90;99.90
21770;DHT22;11046;49.558;8.674;2022-12-29T21:15:32;8.90;99.90
21770;DHT22;11046;49.558;8.674;2022-12-29T21:18:34;8.90;99.90
21770;DHT22;11046;49.558;8.674;2022-12-29T21:21:35;8.80;99.90